createdAt,value
2018-06-12T00:01:10.746Z,18.70
2018-06-12T00:03:39.228Z,18.70
2018-06-12T00:08:34.566Z,18.60
2018-06-12T00:11:02.948Z,18.60
2018-06-12T00:13:31.107Z,18.60
2018-06-12T00:15:58.919Z,18.40
2018-06-12T00:18:26.524Z,18.40
2018-06-12T00:20:54.193Z,18.30
2018-06-12T00:23:22.009Z,18.20
2018-06-12T00:25:49.695Z,18.20
2018-06-12T00:28:17.277Z,18.20
2018-06-12T00:30:44.853Z,18.10
2018-06-12T00:33:12.554Z,18.20
2018-06-12T00:35:40.140Z,18.20
2018-06-12T00:38:07.828Z,18.10
2018-06-12T00:40:35.704Z,18.00
2018-06-12T00:43:03.533Z,18.10
2018-06-12T00:45:31.309Z,18.00
2018-06-12T00:47:59.543Z,17.90
2018-06-12T00:50:27.166Z,17.80
2018-06-12T00:52:54.879Z,17.70
2018-06-12T00:55:22.585Z,17.80
2018-06-12T00:57:50.293Z,17.70
2018-06-12T01:00:17.938Z,17.70
2018-06-12T01:02:45.473Z,17.70
2018-06-12T01:05:13.116Z,17.70
2018-06-12T01:07:40.690Z,17.70
2018-06-12T01:10:08.291Z,17.70
2018-06-12T01:12:36.553Z,17.60
2018-06-12T01:15:04.491Z,17.60
2018-06-12T01:17:32.175Z,17.50
2018-06-12T01:19:59.821Z,17.40
2018-06-12T01:22:28.150Z,17.50
2018-06-12T01:24:56.057Z,17.40
2018-06-12T01:27:23.892Z,17.30
2018-06-12T01:29:51.605Z,17.30
2018-06-12T01:32:19.165Z,17.30
2018-06-12T01:34:46.817Z,17.30
2018-06-12T01:37:14.489Z,17.30
2018-06-12T01:39:42.202Z,17.30
2018-06-12T01:42:09.755Z,17.20
2018-06-12T01:44:37.580Z,17.20
2018-06-12T01:47:05.398Z,17.10
2018-06-12T01:49:33.208Z,17.20
2018-06-12T01:52:00.961Z,17.20
2018-06-12T01:54:28.648Z,17.10
2018-06-12T01:56:56.617Z,17.10
2018-06-12T01:59:24.309Z,17.00
2018-06-12T02:01:52.594Z,17.10
2018-06-12T02:04:20.154Z,17.10
2018-06-12T02:06:47.701Z,17.00
2018-06-12T02:09:15.355Z,17.10
2018-06-12T02:14:10.462Z,17.00
2018-06-12T02:16:38.017Z,16.90
2018-06-12T02:19:05.785Z,16.90
2018-06-12T02:21:33.801Z,16.80
2018-06-12T02:24:01.553Z,16.80
2018-06-12T02:26:29.537Z,16.70
2018-06-12T02:28:57.316Z,16.70
2018-06-12T02:31:25.221Z,16.70
2018-06-12T02:33:52.906Z,16.70
2018-06-12T02:36:20.467Z,16.70
2018-06-12T02:41:15.632Z,16.70
2018-06-12T02:43:43.245Z,16.70
2018-06-12T02:46:10.801Z,16.60
2018-06-12T02:48:38.427Z,16.60
2018-06-12T02:51:06.190Z,16.40
2018-06-12T02:53:33.869Z,16.50
2018-06-12T02:56:01.597Z,16.50
2018-06-12T02:58:29.546Z,16.50
2018-06-12T03:00:57.309Z,16.50
2018-06-12T03:03:24.900Z,16.50
2018-06-12T03:05:52.525Z,16.50
2018-06-12T03:08:20.112Z,16.60
2018-06-12T03:10:47.723Z,16.50
2018-06-12T03:13:15.330Z,16.50
2018-06-12T03:15:42.934Z,16.50
2018-06-12T03:18:10.744Z,16.60
2018-06-12T03:20:44.324Z,16.60
2018-06-12T03:23:11.960Z,16.60
2018-06-12T03:25:39.689Z,16.50
2018-06-12T03:28:07.634Z,16.50
2018-06-12T03:30:35.675Z,16.50
2018-06-12T03:33:03.787Z,16.50
2018-06-12T03:35:31.693Z,16.50
2018-06-12T03:37:59.395Z,16.30
2018-06-12T03:40:27.317Z,16.50
2018-06-12T03:42:55.461Z,16.50
2018-06-12T03:45:23.272Z,16.50
2018-06-12T03:47:51.672Z,16.60
2018-06-12T03:50:19.297Z,16.60
2018-06-12T03:52:46.916Z,16.50
2018-06-12T03:55:14.468Z,16.60
2018-06-12T03:57:42.024Z,16.60
2018-06-12T04:00:09.873Z,16.50
2018-06-12T04:02:37.909Z,16.50
2018-06-12T04:05:05.559Z,16.50
2018-06-12T04:07:33.339Z,16.50
2018-06-12T04:10:01.545Z,16.60
2018-06-12T04:12:29.796Z,16.50
2018-06-12T04:14:58.233Z,16.50
2018-06-12T04:17:25.872Z,16.50
2018-06-12T04:19:53.670Z,16.50
2018-06-12T04:22:21.268Z,16.50
2018-06-12T04:24:48.837Z,16.60
2018-06-12T04:27:16.487Z,16.50
2018-06-12T04:29:44.077Z,16.30
2018-06-12T04:32:12.042Z,16.50
2018-06-12T04:34:39.715Z,16.60
2018-06-12T04:37:07.465Z,16.60
2018-06-12T04:39:35.516Z,16.60
2018-06-12T04:42:03.902Z,16.50
2018-06-12T04:44:32.253Z,16.50
2018-06-12T04:46:59.971Z,16.60
2018-06-12T04:49:27.576Z,16.60
2018-06-12T04:51:55.921Z,16.50
2018-06-12T04:54:23.582Z,16.50
2018-06-12T04:56:51.318Z,16.50
2018-06-12T04:59:18.918Z,16.50
2018-06-12T05:01:52.166Z,16.50
2018-06-12T05:04:19.711Z,16.60
2018-06-12T05:06:47.320Z,16.60
2018-06-12T05:09:14.907Z,16.70
2018-06-12T05:11:42.575Z,16.70
2018-06-12T05:14:10.446Z,16.70
2018-06-12T05:16:38.302Z,16.70
2018-06-12T05:19:06.165Z,16.70
2018-06-12T05:21:34.499Z,16.80
2018-06-12T05:24:02.222Z,16.70
2018-06-12T05:26:30.004Z,16.80
2018-06-12T05:28:57.861Z,16.80
2018-06-12T05:31:25.603Z,16.90
2018-06-12T05:33:53.209Z,16.90
2018-06-12T05:36:20.733Z,17.00
2018-06-12T05:38:48.439Z,16.90
2018-06-12T05:41:16.148Z,17.10
2018-06-12T05:43:43.754Z,17.20
2018-06-12T05:46:11.624Z,17.20
2018-06-12T05:48:39.376Z,17.20
2018-06-12T05:53:34.611Z,17.30
2018-06-12T05:56:02.285Z,17.30
2018-06-12T05:58:30.233Z,17.40
2018-06-12T06:00:58.289Z,17.50
2018-06-12T06:03:25.933Z,17.50
2018-06-12T06:05:54.368Z,17.70
2018-06-12T06:08:22.130Z,18.00
2018-06-12T06:10:49.735Z,17.70
2018-06-12T06:13:17.878Z,17.70
2018-06-12T06:15:45.489Z,17.60
2018-06-12T06:18:13.130Z,17.50
2018-06-12T06:20:40.850Z,17.50
2018-06-12T06:23:08.458Z,17.50
2018-06-12T06:25:36.196Z,17.50
2018-06-12T06:28:04.730Z,17.20
2018-06-12T06:30:32.531Z,17.50
2018-06-12T06:33:00.299Z,17.60
2018-06-12T06:35:27.898Z,17.70
2018-06-12T06:37:55.673Z,17.70
2018-06-12T06:40:23.475Z,17.70
2018-06-12T06:42:51.082Z,17.70
2018-06-12T06:45:18.777Z,17.70
2018-06-12T06:47:46.351Z,17.60
2018-06-12T06:50:13.918Z,17.70
2018-06-12T06:52:41.529Z,17.70
2018-06-12T06:55:09.138Z,17.70
2018-06-12T06:57:36.997Z,17.70
2018-06-12T07:00:06.284Z,17.80
2018-06-12T07:02:33.995Z,17.80
2018-06-12T07:05:01.653Z,17.90
2018-06-12T07:07:29.334Z,17.90
2018-06-12T07:09:56.999Z,17.80
2018-06-12T07:12:24.658Z,17.80
2018-06-12T07:14:52.366Z,17.90
2018-06-12T07:17:20.127Z,17.90
2018-06-12T07:19:47.668Z,17.90
2018-06-12T07:22:15.232Z,18.00
2018-06-12T07:24:42.936Z,18.00
2018-06-12T07:27:10.585Z,18.10
2018-06-12T07:29:38.260Z,18.10
2018-06-12T07:32:06.004Z,18.20
2018-06-12T07:34:33.671Z,18.30
2018-06-12T07:37:01.414Z,18.30
2018-06-12T07:39:29.084Z,18.20
2018-06-12T07:41:56.684Z,18.30
2018-06-12T07:44:24.395Z,18.40
2018-06-12T07:46:52.182Z,18.40
2018-06-12T07:49:19.846Z,18.50
2018-06-12T07:51:47.738Z,18.50
2018-06-12T07:54:15.264Z,18.50
2018-06-12T07:59:10.323Z,18.50
2018-06-12T08:01:38.122Z,18.50
2018-06-12T08:04:05.957Z,18.60
2018-06-12T08:06:33.600Z,18.60
2018-06-12T08:09:01.355Z,18.70
2018-06-12T08:11:28.986Z,18.70
2018-06-12T08:13:56.678Z,18.70
2018-06-12T08:16:24.456Z,18.70
2018-06-12T08:18:52.208Z,18.70
2018-06-12T08:21:19.743Z,18.90
2018-06-12T08:23:47.292Z,19.00
2018-06-12T08:26:14.905Z,19.00
2018-06-12T08:28:42.546Z,19.10
2018-06-12T08:31:10.169Z,19.30
2018-06-12T08:33:37.876Z,19.20
2018-06-12T08:36:05.553Z,19.20
2018-06-12T08:38:33.209Z,19.30
2018-06-12T08:41:01.366Z,19.40
2018-06-12T08:43:29.916Z,19.40
2018-06-12T08:45:58.412Z,19.50
2018-06-12T08:48:26.691Z,19.60
2018-06-12T08:50:54.365Z,19.70
2018-06-12T08:53:22.146Z,19.70
2018-06-12T08:55:49.786Z,19.70
2018-06-12T08:58:17.412Z,19.80
2018-06-12T09:00:45.187Z,19.90
2018-06-12T09:03:12.778Z,20.00
2018-06-12T09:05:40.520Z,20.00
2018-06-12T09:08:09.349Z,20.10
2018-06-12T09:10:38.243Z,20.10
2018-06-12T09:13:06.961Z,20.10
2018-06-12T09:15:35.232Z,20.30
2018-06-12T09:18:04.621Z,20.30
2018-06-12T09:20:34.353Z,20.30
2018-06-12T09:23:02.149Z,20.30
2018-06-12T09:25:30.095Z,20.40
2018-06-12T09:27:58.024Z,20.50
2018-06-12T09:30:27.808Z,20.60
2018-06-12T09:32:56.311Z,20.70
2018-06-12T10:09:39.679Z,22.30
2018-06-12T10:12:07.137Z,22.10
2018-06-12T10:14:34.642Z,21.90
2018-06-12T10:17:02.863Z,21.80
2018-06-12T10:19:30.677Z,21.80
2018-06-12T10:21:58.162Z,21.70
2018-06-12T10:24:25.675Z,21.60
2018-06-12T10:26:53.168Z,21.70
2018-06-12T10:29:20.577Z,21.60
2018-06-12T10:31:48.152Z,21.60
2018-06-12T10:34:15.729Z,21.50
2018-06-12T10:36:43.170Z,21.50
2018-06-12T10:39:10.659Z,21.50
2018-06-12T10:41:38.130Z,21.50
2018-06-12T10:44:05.965Z,21.50
2018-06-12T10:46:33.459Z,21.50
2018-06-12T10:49:01.110Z,21.50
2018-06-12T10:51:28.531Z,21.60
2018-06-12T10:53:56.039Z,21.60
2018-06-12T10:56:23.832Z,21.60
2018-06-12T10:58:51.314Z,21.60
2018-06-12T11:01:18.882Z,21.60
2018-06-12T11:03:46.422Z,21.60
2018-06-12T11:06:13.897Z,21.60
2018-06-12T11:08:41.343Z,21.60
2018-06-12T11:11:08.779Z,21.60
2018-06-12T11:13:36.245Z,21.50
2018-06-12T11:16:04.094Z,21.60
2018-06-12T11:18:31.621Z,21.60
2018-06-12T11:20:59.220Z,21.60
2018-06-12T11:23:26.688Z,21.60
2018-06-12T11:25:54.158Z,21.60
2018-06-12T11:28:21.604Z,21.60
2018-06-12T11:30:49.319Z,21.60
2018-06-12T11:33:16.869Z,21.50
2018-06-12T11:35:44.418Z,21.50
2018-06-12T11:38:11.877Z,21.50
2018-06-12T11:40:39.345Z,21.50
2018-06-12T11:43:06.957Z,21.50
2018-06-12T11:45:34.444Z,21.50
2018-06-12T11:48:02.059Z,21.50
2018-06-12T11:50:29.532Z,21.50
2018-06-12T11:52:56.979Z,21.50
2018-06-12T11:55:24.490Z,21.50
2018-06-12T11:57:52.041Z,21.50
2018-06-12T12:00:19.479Z,21.40
2018-06-12T12:02:46.870Z,21.30
2018-06-12T12:05:14.408Z,21.30
2018-06-12T12:07:42.231Z,21.30
2018-06-12T12:10:09.836Z,21.30
2018-06-12T12:12:37.427Z,21.30
2018-06-12T12:15:05.235Z,21.20
2018-06-12T12:17:32.753Z,21.20
2018-06-12T12:20:00.229Z,21.20
2018-06-12T12:22:27.769Z,21.20
2018-06-12T12:27:22.859Z,20.80
2018-06-12T12:29:50.643Z,20.70
2018-06-12T12:32:18.158Z,20.60
2018-06-12T12:34:45.639Z,20.40
2018-06-12T12:37:13.423Z,20.40
2018-06-12T12:39:40.964Z,20.40
2018-06-12T12:42:08.470Z,20.30
2018-06-12T12:44:36.082Z,20.40
2018-06-12T12:47:03.651Z,20.40
2018-06-12T12:49:31.159Z,20.40
2018-06-12T12:51:58.858Z,20.50
2018-06-12T12:54:26.321Z,20.50
2018-06-12T12:56:53.843Z,20.30
2018-06-12T12:59:21.681Z,20.30
2018-06-12T13:01:49.146Z,20.20
2018-06-12T13:04:16.882Z,20.10
2018-06-12T13:06:44.334Z,20.10
2018-06-12T13:09:12.082Z,20.10
2018-06-12T13:11:39.498Z,20.10
2018-06-12T13:14:07.061Z,20.10
2018-06-12T13:16:34.823Z,20.10
2018-06-12T13:19:02.695Z,20.00
2018-06-12T13:21:30.365Z,20.00
2018-06-12T13:23:57.839Z,20.00
2018-06-12T13:26:25.402Z,20.00
2018-06-12T13:28:52.901Z,20.00
2018-06-12T13:31:20.530Z,20.00
2018-06-12T13:33:48.073Z,20.00
2018-06-12T13:36:15.739Z,20.10
2018-06-12T13:38:43.138Z,20.10
2018-06-12T13:41:10.607Z,20.00
2018-06-12T13:43:38.263Z,20.00
2018-06-12T13:46:06.000Z,20.00
2018-06-12T13:48:33.746Z,20.10
2018-06-12T13:51:01.218Z,20.10
2018-06-12T13:53:28.942Z,20.10
2018-06-12T13:55:56.425Z,20.10
2018-06-12T13:58:23.918Z,20.10
2018-06-12T14:03:18.797Z,20.10
2018-06-12T14:05:46.254Z,20.20
2018-06-12T14:08:13.699Z,20.10
2018-06-12T14:10:41.300Z,20.20
2018-06-12T14:13:08.795Z,20.10
2018-06-12T14:15:36.308Z,20.10
2018-06-12T14:18:04.248Z,20.10
2018-06-12T14:20:31.883Z,20.10
2018-06-12T14:22:59.370Z,20.00
2018-06-12T14:25:26.883Z,20.10
2018-06-12T14:27:54.357Z,20.00
2018-06-12T14:30:22.041Z,20.00
2018-06-12T14:32:49.555Z,20.00
2018-06-12T14:35:17.069Z,20.00
2018-06-12T14:37:44.743Z,19.90
2018-06-12T14:40:12.236Z,19.90
2018-06-12T14:42:39.789Z,19.90
2018-06-12T14:45:07.260Z,19.90
2018-06-12T14:47:34.863Z,19.90
2018-06-12T14:50:02.397Z,20.00
2018-06-12T14:52:29.897Z,20.00
2018-06-12T14:54:57.334Z,20.10
2018-06-12T14:57:24.772Z,20.10
2018-06-12T15:02:20.101Z,20.20
2018-06-12T15:04:47.593Z,20.20
2018-06-12T15:07:14.982Z,20.30
2018-06-12T15:09:43.012Z,20.40
2018-06-12T15:12:10.470Z,20.40
2018-06-12T15:14:38.014Z,20.70
2018-06-12T15:17:05.454Z,20.90
2018-06-12T15:19:32.931Z,21.00
2018-06-12T15:22:00.430Z,21.10
2018-06-12T15:24:28.562Z,21.10
2018-06-12T15:26:56.048Z,21.20
2018-06-12T15:29:23.668Z,21.20
2018-06-12T15:31:51.178Z,21.20
2018-06-12T15:34:18.682Z,21.30
2018-06-12T15:36:46.166Z,21.30
2018-06-12T15:39:13.684Z,21.30
2018-06-12T15:41:41.157Z,21.30
2018-06-12T15:44:08.693Z,21.30
2018-06-12T15:46:36.128Z,21.20
2018-06-12T15:49:03.802Z,21.20
2018-06-12T15:51:31.399Z,21.20
2018-06-12T15:53:58.934Z,21.20
2018-06-12T15:56:26.831Z,21.20
2018-06-12T15:58:54.346Z,21.10
2018-06-12T16:01:21.819Z,21.10
2018-06-12T16:03:49.459Z,21.10
2018-06-12T16:06:16.974Z,21.00
2018-06-12T16:08:44.442Z,21.10
2018-06-12T16:11:11.854Z,21.10
2018-06-12T16:13:39.408Z,21.10
2018-06-12T16:16:06.950Z,21.20
2018-06-12T16:18:34.511Z,21.20
2018-06-12T16:21:02.173Z,21.30
2018-06-12T16:23:29.689Z,21.30
2018-06-12T16:25:57.227Z,21.30
2018-06-12T16:28:24.687Z,21.30
2018-06-12T16:30:52.197Z,21.20
2018-06-12T16:33:19.825Z,21.20
2018-06-12T16:35:47.351Z,21.10
2018-06-12T16:38:15.035Z,21.10
2018-06-12T16:40:42.686Z,21.10
2018-06-12T16:43:10.343Z,21.00
2018-06-12T16:45:37.926Z,21.00
2018-06-12T16:48:06.041Z,20.90
2018-06-12T16:50:33.505Z,20.80
2018-06-12T16:53:01.216Z,20.70
2018-06-12T16:55:29.128Z,20.60
2018-06-12T16:57:56.687Z,20.50
2018-06-12T17:00:24.345Z,20.50
2018-06-12T17:02:51.866Z,20.50
2018-06-12T17:05:19.401Z,20.40
2018-06-12T17:07:47.083Z,20.40
2018-06-12T17:10:14.532Z,20.30
2018-06-12T17:12:42.239Z,20.40
2018-06-12T17:15:09.926Z,20.40
2018-06-12T17:17:37.501Z,20.40
2018-06-12T17:22:32.936Z,20.50
2018-06-12T17:25:00.622Z,20.40
2018-06-12T17:27:28.132Z,20.40
2018-06-12T17:29:56.190Z,20.30
2018-06-12T17:32:23.633Z,20.40
2018-06-12T17:34:51.371Z,20.30
2018-06-12T17:37:18.968Z,20.30
2018-06-12T17:39:46.648Z,20.20
2018-06-12T17:42:14.395Z,20.20
2018-06-12T17:44:41.874Z,20.20
2018-06-12T17:47:09.387Z,20.10
2018-06-12T17:49:36.939Z,20.10
2018-06-12T17:52:04.702Z,20.00
2018-06-12T17:54:32.190Z,20.10
2018-06-12T17:56:59.955Z,20.00
2018-06-12T17:59:27.359Z,19.90
2018-06-12T18:01:54.900Z,19.90
2018-06-12T18:04:22.397Z,20.00
2018-06-12T18:06:49.881Z,19.90
2018-06-12T18:09:17.486Z,20.00
2018-06-12T18:11:45.408Z,20.00
2018-06-12T18:14:12.963Z,19.90
2018-06-12T18:16:40.753Z,20.00
2018-06-12T18:19:08.229Z,20.00
2018-06-12T18:21:36.150Z,19.90
2018-06-12T18:24:04.257Z,19.90
2018-06-12T18:26:31.735Z,19.90
2018-06-12T18:28:59.200Z,19.80
2018-06-12T18:31:26.695Z,19.80
2018-06-12T18:33:54.244Z,19.80
2018-06-12T18:36:21.929Z,19.80
2018-06-12T18:41:17.074Z,19.80
2018-06-12T18:43:44.579Z,19.80
2018-06-12T18:46:12.286Z,19.70
2018-06-12T18:48:39.839Z,19.70
2018-06-12T18:51:07.328Z,19.70
2018-06-12T18:53:35.106Z,19.60
2018-06-12T18:56:02.548Z,19.50
2018-06-12T18:58:29.938Z,19.50
2018-06-12T19:00:57.404Z,19.50
2018-06-12T19:03:25.150Z,19.50
2018-06-12T19:05:52.601Z,19.60
2018-06-12T19:08:20.325Z,19.50
2018-06-12T19:10:47.963Z,19.40
2018-06-12T19:13:15.399Z,19.40
2018-06-12T19:15:42.879Z,19.40
2018-06-12T19:18:10.460Z,19.30
2018-06-12T19:20:38.186Z,19.20
2018-06-12T19:23:05.618Z,19.20
2018-06-12T19:25:33.327Z,19.20
2018-06-12T19:28:00.910Z,19.10
2018-06-12T19:30:28.475Z,19.10
2018-06-12T19:32:55.971Z,19.10
2018-06-12T19:35:23.522Z,19.00
2018-06-12T19:37:51.417Z,19.00
2018-06-12T19:40:18.953Z,19.00
2018-06-12T19:42:46.947Z,19.00
2018-06-12T19:45:14.398Z,18.90
2018-06-12T19:47:42.076Z,18.90
2018-06-12T19:50:09.510Z,18.80
2018-06-12T19:55:04.731Z,18.80
2018-06-12T19:59:59.954Z,18.70
2018-06-12T20:02:27.623Z,18.70
2018-06-12T20:04:55.217Z,18.70
2018-06-12T20:07:22.754Z,18.70
2018-06-12T20:09:50.246Z,18.60
2018-06-12T20:14:45.450Z,18.60
2018-06-12T20:17:12.914Z,18.50
2018-06-12T20:19:40.542Z,18.50
2018-06-12T20:22:08.223Z,18.50
2018-06-12T20:24:35.957Z,18.50
2018-06-12T20:27:03.673Z,18.50
2018-06-12T20:31:58.543Z,18.50
2018-06-12T20:34:26.075Z,18.50
2018-06-12T20:36:53.783Z,18.40
2018-06-12T20:39:21.288Z,18.40
2018-06-12T20:41:49.118Z,18.50
2018-06-12T20:44:16.706Z,18.50
2018-06-12T20:46:44.307Z,18.50
2018-06-12T20:49:11.726Z,18.50
2018-06-12T20:54:06.584Z,18.30
2018-06-12T20:56:34.127Z,18.20
2018-06-12T20:59:01.719Z,18.30
2018-06-12T21:01:29.223Z,18.30
2018-06-12T21:03:56.785Z,18.30
2018-06-12T21:06:24.233Z,18.20
2018-06-12T21:08:51.762Z,18.10
2018-06-12T21:11:19.186Z,18.10
2018-06-12T21:13:46.765Z,18.20
2018-06-12T21:16:14.322Z,18.20
2018-06-12T21:18:41.807Z,18.30
2018-06-12T21:21:09.360Z,18.20
2018-06-12T21:23:36.858Z,18.20
2018-06-12T21:26:04.491Z,18.20
2018-06-12T21:28:31.921Z,18.10
2018-06-12T21:30:59.409Z,18.10
2018-06-12T21:33:26.927Z,18.20
2018-06-12T21:35:54.494Z,18.20
2018-06-12T21:38:22.023Z,18.20
2018-06-12T21:40:49.575Z,18.20
2018-06-12T21:43:17.007Z,18.10
2018-06-12T21:45:44.495Z,18.20
2018-06-12T21:48:11.979Z,18.10
2018-06-12T21:50:39.438Z,18.10
2018-06-12T21:53:06.911Z,18.20
2018-06-12T21:55:34.371Z,18.10
2018-06-12T21:58:01.900Z,18.10
2018-06-12T22:00:33.440Z,18.10
2018-06-12T22:03:01.103Z,18.10
2018-06-12T22:05:28.568Z,18.10
2018-06-12T22:07:56.078Z,18.20
2018-06-12T22:10:23.611Z,18.20
2018-06-12T22:12:51.185Z,18.20
2018-06-12T22:17:49.358Z,18.10
2018-06-12T22:20:16.803Z,18.20
2018-06-12T22:22:44.239Z,18.20
2018-06-12T22:25:11.725Z,18.10
2018-06-12T22:27:39.321Z,18.10
2018-06-12T22:30:07.221Z,18.00
2018-06-12T22:32:34.613Z,18.00
2018-06-12T22:35:02.105Z,17.90
2018-06-12T22:37:29.613Z,17.90
2018-06-12T22:39:57.317Z,18.00
2018-06-12T22:42:24.791Z,17.90
2018-06-12T22:44:52.146Z,17.90
2018-06-12T22:47:19.671Z,17.90
2018-06-12T22:49:47.373Z,17.90
2018-06-12T22:52:14.797Z,17.80
2018-06-12T22:54:42.278Z,17.80
2018-06-12T22:57:09.784Z,17.80
2018-06-12T22:59:37.171Z,17.70
2018-06-12T23:02:05.007Z,17.70
2018-06-12T23:04:32.502Z,17.70
2018-06-12T23:07:00.029Z,17.70
2018-06-12T23:09:27.461Z,17.60
2018-06-12T23:11:54.974Z,17.60
2018-06-12T23:16:49.981Z,17.50
2018-06-12T23:19:23.601Z,17.40
2018-06-12T23:21:59.715Z,17.30
2018-06-12T23:24:27.292Z,17.20
2018-06-12T23:26:54.938Z,17.20
2018-06-12T23:29:22.490Z,17.20
2018-06-12T23:31:49.937Z,17.20
2018-06-12T23:34:17.444Z,17.20
2018-06-12T23:36:45.035Z,17.20
2018-06-12T23:39:12.563Z,17.20
2018-06-12T23:41:39.950Z,17.20
2018-06-12T23:44:07.530Z,17.20
2018-06-12T23:49:02.541Z,17.20
2018-06-12T23:51:29.999Z,17.20
2018-06-12T23:53:57.405Z,17.20
2018-06-12T23:56:24.890Z,17.10
2018-06-12T23:58:52.362Z,17.10
